createdAt,value
2018-12-21T00:01:24.317Z,91.48
2018-12-21T00:03:53.615Z,91.66
2018-12-21T00:06:23.302Z,91.97
2018-12-21T00:08:52.578Z,91.82
2018-12-21T00:11:21.886Z,90.78
2018-12-21T00:13:51.160Z,91.17
2018-12-21T00:16:20.537Z,91.40
2018-12-21T00:18:49.810Z,90.65
2018-12-21T00:21:21.943Z,91.41
2018-12-21T00:23:50.440Z,91.20
2018-12-21T00:26:20.826Z,91.11
2018-12-21T00:28:50.141Z,91.21
2018-12-21T00:31:24.681Z,91.21
2018-12-21T00:33:59.128Z,90.97
2018-12-21T00:36:33.594Z,91.50
2018-12-21T00:39:08.074Z,91.74
2018-12-21T00:41:37.031Z,91.98
2018-12-21T00:44:11.483Z,91.57
2018-12-21T00:46:46.694Z,91.08
2018-12-21T00:49:15.976Z,90.55
2018-12-21T00:51:45.374Z,90.20
2018-12-21T00:54:14.942Z,90.09
2018-12-21T00:56:44.298Z,90.49
2018-12-21T00:59:13.673Z,90.65
2018-12-21T01:01:43.036Z,91.20
2018-12-21T01:04:12.334Z,90.99
2018-12-21T01:06:41.966Z,92.40
2018-12-21T01:09:11.490Z,92.49
2018-12-21T01:11:40.855Z,91.34
2018-12-21T01:14:10.154Z,91.65
2018-12-21T01:16:39.562Z,92.02
2018-12-21T01:19:08.927Z,92.36
2018-12-21T01:21:38.916Z,92.79
2018-12-21T01:24:08.586Z,92.71
2018-12-21T01:26:37.962Z,91.15
2018-12-21T01:29:07.227Z,92.34
2018-12-21T01:31:37.111Z,92.07
2018-12-21T01:34:06.543Z,92.08
2018-12-21T01:36:35.842Z,92.98
2018-12-21T01:39:07.332Z,92.91
2018-12-21T01:41:36.823Z,92.30
2018-12-21T01:44:06.194Z,91.97
2018-12-21T01:46:35.492Z,92.40
2018-12-21T01:49:05.043Z,92.03
2018-12-21T01:51:34.299Z,91.77
2018-12-21T01:54:03.661Z,91.66
2018-12-21T01:56:32.943Z,92.11
2018-12-21T01:59:02.390Z,92.54
2018-12-21T02:01:31.675Z,91.48
2018-12-21T02:04:00.969Z,91.42
2018-12-21T02:06:30.249Z,92.87
2018-12-21T02:08:59.570Z,91.89
2018-12-21T02:11:28.844Z,92.44
2018-12-21T02:13:58.128Z,92.50
2018-12-21T02:16:29.004Z,92.26
2018-12-21T02:18:58.344Z,92.71
2018-12-21T02:21:27.626Z,92.58
2018-12-21T02:23:57.049Z,92.04
2018-12-21T02:26:26.454Z,92.26
2018-12-21T02:28:55.991Z,92.29
2018-12-21T02:31:25.505Z,92.13
2018-12-21T02:33:54.818Z,92.61
2018-12-21T02:36:24.078Z,93.63
2018-12-21T02:38:53.391Z,93.19
2018-12-21T02:41:22.656Z,92.24
2018-12-21T02:43:52.506Z,93.15
2018-12-21T02:46:21.870Z,92.37
2018-12-21T02:48:51.626Z,92.37
2018-12-21T02:51:20.951Z,91.81
2018-12-21T02:53:50.337Z,92.38
2018-12-21T02:56:19.712Z,90.88
2018-12-21T02:58:49.011Z,90.81
2018-12-21T03:01:18.352Z,91.36
2018-12-21T03:03:47.622Z,92.54
2018-12-21T03:06:17.281Z,92.96
2018-12-21T03:08:46.553Z,92.60
2018-12-21T03:11:15.875Z,92.77
2018-12-21T03:13:45.165Z,92.21
2018-12-21T03:16:14.397Z,91.88
2018-12-21T03:18:43.685Z,92.65
2018-12-21T03:21:13.791Z,92.47
2018-12-21T03:23:43.878Z,92.35
2018-12-21T03:26:13.130Z,91.55
2018-12-21T03:28:43.066Z,90.91
2018-12-21T03:31:12.509Z,91.12
2018-12-21T03:33:41.866Z,92.13
2018-12-21T03:36:11.123Z,92.48
2018-12-21T03:38:40.484Z,92.46
2018-12-21T03:41:09.765Z,91.99
2018-12-21T03:43:39.077Z,91.81
2018-12-21T03:46:08.317Z,92.23
2018-12-21T03:48:37.584Z,91.45
2018-12-21T03:51:06.861Z,92.42
2018-12-21T03:53:36.124Z,92.69
2018-12-21T03:56:05.519Z,92.27
2018-12-21T03:58:34.902Z,92.68
2018-12-21T04:01:04.393Z,92.96
2018-12-21T04:03:33.748Z,92.84
2018-12-21T04:06:03.019Z,92.43
2018-12-21T04:08:32.316Z,93.43
2018-12-21T04:11:02.100Z,92.35
2018-12-21T04:13:31.969Z,93.12
2018-12-21T04:16:00.446Z,92.64
2018-12-21T04:18:29.702Z,93.06
2018-12-21T04:20:58.960Z,93.08
2018-12-21T04:23:28.270Z,92.18
2018-12-21T04:25:57.565Z,92.70
2018-12-21T04:28:26.858Z,92.72
2018-12-21T04:30:56.107Z,92.23
2018-12-21T04:33:25.406Z,92.62
2018-12-21T04:35:54.658Z,92.08
2018-12-21T04:38:23.956Z,92.62
2018-12-21T04:40:53.310Z,92.92
2018-12-21T04:43:22.591Z,93.14
2018-12-21T04:45:50.935Z,93.05
2018-12-21T04:48:20.321Z,92.28
2018-12-21T04:50:49.599Z,91.52
2018-12-21T04:53:18.842Z,91.49
2018-12-21T04:55:48.108Z,91.39
2018-12-21T04:58:17.537Z,90.97
2018-12-21T05:00:46.794Z,92.15
2018-12-21T05:03:16.063Z,92.66
2018-12-21T05:05:45.437Z,91.72
2018-12-21T05:10:43.287Z,90.90
2018-12-21T05:13:12.628Z,91.73
2018-12-21T05:15:41.942Z,90.80
2018-12-21T05:18:11.291Z,91.21
2018-12-21T05:20:40.767Z,91.11
2018-12-21T05:23:10.047Z,91.55
2018-12-21T05:25:39.628Z,91.67
2018-12-21T05:28:08.911Z,91.26
2018-12-21T05:30:38.172Z,91.05
2018-12-21T05:33:07.688Z,90.89
2018-12-21T05:35:36.957Z,90.49
2018-12-21T05:38:06.251Z,90.27
2018-12-21T05:40:35.538Z,91.25
2018-12-21T05:43:05.107Z,91.86
2018-12-21T05:45:34.548Z,91.07
2018-12-21T05:48:03.818Z,91.16
2018-12-21T05:50:33.117Z,91.45
2018-12-21T05:53:02.366Z,91.08
2018-12-21T05:55:31.635Z,91.19
2018-12-21T05:58:00.890Z,91.26
2018-12-21T06:00:30.150Z,89.52
2018-12-21T06:02:59.478Z,89.43
2018-12-21T06:05:28.732Z,89.00
2018-12-21T06:07:58.179Z,89.36
2018-12-21T06:10:27.539Z,90.86
2018-12-21T06:12:56.828Z,90.75
2018-12-21T06:15:26.141Z,90.96
2018-12-21T06:17:55.400Z,90.38
2018-12-21T06:20:24.838Z,91.04
2018-12-21T06:22:54.161Z,90.62
2018-12-21T06:25:23.645Z,90.64
2018-12-21T06:27:53.030Z,91.03
2018-12-21T06:30:22.468Z,90.60
2018-12-21T06:32:52.009Z,90.50
2018-12-21T06:35:21.358Z,91.38
2018-12-21T06:37:50.739Z,90.47
2018-12-21T06:40:19.999Z,90.94
2018-12-21T06:42:50.761Z,90.10
2018-12-21T06:45:20.341Z,90.11
2018-12-21T06:47:49.622Z,90.15
2018-12-21T06:50:18.915Z,89.36
2018-12-21T06:52:48.221Z,88.71
2018-12-21T06:55:17.489Z,88.27
2018-12-21T06:57:47.658Z,87.96
2018-12-21T07:00:17.137Z,88.52
2018-12-21T07:02:46.496Z,88.54
2018-12-21T07:05:16.822Z,88.29
2018-12-21T07:07:46.086Z,88.25
2018-12-21T07:10:15.420Z,87.57
2018-12-21T07:12:46.786Z,88.52
2018-12-21T07:15:16.070Z,88.88
2018-12-21T07:17:48.789Z,88.26
2018-12-21T07:20:18.035Z,89.33
2018-12-21T07:22:47.369Z,89.14
2018-12-21T07:25:16.664Z,88.83
2018-12-21T07:27:46.051Z,89.96
2018-12-21T07:30:15.597Z,89.47
2018-12-21T07:32:45.733Z,88.75
2018-12-21T07:35:17.562Z,88.89
2018-12-21T07:37:46.868Z,89.66
2018-12-21T07:43:19.195Z,89.84
2018-12-21T07:45:48.470Z,90.57
2018-12-21T07:48:17.718Z,89.82
2018-12-21T07:50:47.020Z,89.44
2018-12-21T07:53:16.274Z,90.95
2018-12-21T07:55:45.521Z,89.33
2018-12-21T07:58:14.973Z,88.24
2018-12-21T08:00:44.386Z,88.72
2018-12-21T08:03:13.868Z,88.92
2018-12-21T08:05:43.242Z,87.67
2018-12-21T08:08:12.554Z,88.01
2018-12-21T08:10:42.772Z,88.69
2018-12-21T08:13:12.146Z,88.02
2018-12-21T08:15:41.480Z,86.18
2018-12-21T08:18:10.762Z,86.40
2018-12-21T08:20:40.080Z,86.16
2018-12-21T08:23:09.446Z,84.99
2018-12-21T08:25:38.794Z,85.79
2018-12-21T08:28:08.174Z,85.54
2018-12-21T08:30:37.496Z,84.79
2018-12-21T08:33:06.789Z,84.62
2018-12-21T08:35:36.519Z,85.02
2018-12-21T08:38:05.807Z,84.43
2018-12-21T08:40:35.207Z,84.66
2018-12-21T08:43:04.500Z,84.65
2018-12-21T08:45:33.749Z,84.91
2018-12-21T08:48:03.062Z,84.68
2018-12-21T08:50:32.416Z,84.35
2018-12-21T08:53:01.695Z,83.83
2018-12-21T08:55:30.939Z,84.03
2018-12-21T08:58:00.339Z,83.74
2018-12-21T09:00:30.429Z,83.71
2018-12-21T09:02:59.699Z,82.74
2018-12-21T09:05:29.046Z,82.19
2018-12-21T09:07:58.554Z,80.83
2018-12-21T09:10:27.808Z,80.28
2018-12-21T09:12:57.183Z,77.83
2018-12-21T09:15:26.547Z,76.62
2018-12-21T09:17:55.905Z,75.45
2018-12-21T09:20:25.159Z,75.12
2018-12-21T09:22:54.427Z,76.54
2018-12-21T09:25:23.703Z,78.09
2018-12-21T09:27:53.002Z,78.84
2018-12-21T09:30:22.275Z,79.93
2018-12-21T09:32:51.673Z,83.58
2018-12-21T09:35:21.050Z,85.63
2018-12-21T09:37:50.428Z,87.25
2018-12-21T09:40:19.766Z,89.11
2018-12-21T09:42:49.031Z,90.31
2018-12-21T09:45:18.400Z,91.87
2018-12-21T09:47:47.747Z,92.06
2018-12-21T09:50:17.022Z,92.09
2018-12-21T09:52:47.165Z,92.62
2018-12-21T09:55:16.513Z,93.31
2018-12-21T09:57:45.780Z,92.54
2018-12-21T10:00:15.133Z,92.15
2018-12-21T10:02:44.435Z,92.56
2018-12-21T10:05:16.603Z,93.28
2018-12-21T10:07:46.842Z,93.01
2018-12-21T10:10:16.377Z,93.37
2018-12-21T10:12:46.042Z,92.58
2018-12-21T10:15:16.360Z,92.74
2018-12-21T10:20:43.630Z,93.11
2018-12-21T10:23:13.246Z,92.79
2018-12-21T10:25:43.602Z,92.72
2018-12-21T10:28:13.083Z,94.02
2018-12-21T10:30:43.355Z,92.93
2018-12-21T10:33:12.822Z,93.80
2018-12-21T10:35:42.111Z,92.92
2018-12-21T10:38:12.385Z,93.46
2018-12-21T10:40:41.638Z,93.27
2018-12-21T10:43:10.894Z,93.61
2018-12-21T10:45:41.692Z,92.44
2018-12-21T10:48:11.375Z,92.96
2018-12-21T10:50:40.923Z,93.40
2018-12-21T10:53:10.271Z,93.42
2018-12-21T10:55:39.570Z,94.06
2018-12-21T10:58:08.920Z,93.54
2018-12-21T11:00:38.261Z,93.48
2018-12-21T11:03:07.616Z,92.83
2018-12-21T11:05:36.897Z,92.65
2018-12-21T11:08:06.164Z,92.78
2018-12-21T11:10:35.613Z,93.70
2018-12-21T11:13:04.992Z,92.85
2018-12-21T11:15:34.745Z,92.97
2018-12-21T11:18:04.157Z,93.35
2018-12-21T11:20:33.412Z,93.93
2018-12-21T11:23:02.706Z,93.33
2018-12-21T11:25:32.067Z,93.32
2018-12-21T11:28:01.348Z,93.75
2018-12-21T11:30:30.639Z,93.61
2018-12-21T11:36:05.354Z,94.02
2018-12-21T11:38:34.622Z,93.80
2018-12-21T11:41:04.063Z,93.10
2018-12-21T11:43:35.266Z,93.55
2018-12-21T11:46:04.873Z,94.37
2018-12-21T11:48:34.111Z,93.63
2018-12-21T11:51:03.454Z,94.43
2018-12-21T11:53:32.703Z,93.57
2018-12-21T11:56:02.075Z,93.60
2018-12-21T11:58:31.358Z,94.38
2018-12-21T12:01:00.633Z,94.17
2018-12-21T12:03:29.956Z,94.54
2018-12-21T12:05:59.206Z,92.90
2018-12-21T12:08:28.472Z,92.21
2018-12-21T12:10:57.870Z,92.40
2018-12-21T12:13:27.196Z,92.96
2018-12-21T12:15:56.464Z,93.13
2018-12-21T12:18:25.730Z,92.73
2018-12-21T12:20:55.542Z,92.10
2018-12-21T12:23:24.990Z,91.92
2018-12-21T12:25:54.266Z,91.80
2018-12-21T12:28:23.533Z,91.32
2018-12-21T12:30:55.235Z,91.52
2018-12-21T12:33:24.458Z,91.85
2018-12-21T12:35:53.710Z,90.75
2018-12-21T12:38:23.045Z,91.32
2018-12-21T12:40:52.313Z,91.30
2018-12-21T12:43:28.706Z,90.82
2018-12-21T12:45:58.047Z,90.69
2018-12-21T12:48:27.365Z,91.27
2018-12-21T12:50:56.622Z,90.61
2018-12-21T12:53:25.890Z,90.90
2018-12-21T12:55:55.182Z,91.70
2018-12-21T12:58:24.458Z,91.40
2018-12-21T13:00:54.065Z,91.20
2018-12-21T13:03:23.458Z,91.39
2018-12-21T13:05:52.709Z,91.99
2018-12-21T13:08:21.982Z,91.53
2018-12-21T13:10:51.292Z,91.32
2018-12-21T13:13:20.546Z,91.33
2018-12-21T13:15:49.889Z,91.97
2018-12-21T13:18:20.031Z,90.51
2018-12-21T13:20:49.286Z,88.36
2018-12-21T13:23:18.829Z,87.56
2018-12-21T13:25:48.529Z,88.04
2018-12-21T13:28:17.908Z,87.52
2018-12-21T13:30:47.271Z,87.71
2018-12-21T13:33:16.961Z,88.37
2018-12-21T13:35:46.311Z,86.76
2018-12-21T13:38:15.527Z,87.34
2018-12-21T13:40:44.829Z,87.03
2018-12-21T13:43:14.056Z,86.81
2018-12-21T13:45:43.291Z,86.18
2018-12-21T13:48:13.313Z,85.38
2018-12-21T13:50:42.582Z,84.65
2018-12-21T13:53:11.843Z,85.00
2018-12-21T13:55:41.062Z,83.20
2018-12-21T13:58:10.382Z,83.89
2018-12-21T14:00:39.687Z,82.64
2018-12-21T14:03:08.939Z,82.15
2018-12-21T14:05:38.253Z,80.81
2018-12-21T14:11:05.974Z,79.41
2018-12-21T14:13:35.239Z,80.50
2018-12-21T14:16:04.543Z,79.74
2018-12-21T14:18:33.793Z,79.14
2018-12-21T14:21:03.150Z,78.30
2018-12-21T14:23:32.364Z,79.68
2018-12-21T14:26:02.478Z,79.78
2018-12-21T14:28:31.761Z,80.44
2018-12-21T14:31:02.190Z,80.36
2018-12-21T14:33:31.442Z,80.62
2018-12-21T14:36:00.655Z,78.85
2018-12-21T14:38:29.906Z,80.68
2018-12-21T14:40:59.590Z,80.99
2018-12-21T14:43:28.894Z,80.67
2018-12-21T14:45:58.199Z,81.51
2018-12-21T14:48:27.497Z,80.31
2018-12-21T14:50:56.817Z,80.08
2018-12-21T14:53:26.085Z,79.67
2018-12-21T14:55:55.466Z,80.21
2018-12-21T14:58:24.765Z,80.50
2018-12-21T15:00:54.148Z,80.49
2018-12-21T15:03:23.382Z,80.08
2018-12-21T15:05:52.728Z,80.67
2018-12-21T15:08:22.174Z,80.75
2018-12-21T15:10:51.454Z,80.84
2018-12-21T15:13:20.845Z,81.11
2018-12-21T15:15:50.222Z,80.20
2018-12-21T15:18:20.464Z,81.00
2018-12-21T15:20:49.821Z,80.39
2018-12-21T15:23:19.090Z,80.01
2018-12-21T15:25:48.345Z,80.06
2018-12-21T15:28:18.587Z,80.46
2018-12-21T15:30:47.785Z,79.22
2018-12-21T15:33:17.098Z,80.81
2018-12-21T15:35:46.852Z,80.33
2018-12-21T15:38:19.127Z,80.78
2018-12-21T15:40:48.370Z,80.84
2018-12-21T15:43:17.594Z,81.63
2018-12-21T15:45:46.798Z,81.14
2018-12-21T15:48:16.046Z,81.45
2018-12-21T15:50:46.327Z,80.91
2018-12-21T15:53:15.575Z,81.96
2018-12-21T15:55:44.882Z,81.24
2018-12-21T15:58:14.519Z,81.73
2018-12-21T16:00:43.878Z,81.91
2018-12-21T16:03:13.243Z,81.62
2018-12-21T16:05:42.571Z,80.67
2018-12-21T16:08:11.890Z,80.81
2018-12-21T16:10:41.243Z,80.98
2018-12-21T16:13:10.496Z,82.76
2018-12-21T16:15:39.839Z,83.84
2018-12-21T16:18:09.115Z,84.14
2018-12-21T16:20:38.334Z,84.71
2018-12-21T16:23:07.678Z,83.66
2018-12-21T16:25:36.915Z,83.90
2018-12-21T16:28:06.341Z,83.81
2018-12-21T16:30:35.717Z,83.87
2018-12-21T16:33:05.123Z,83.16
2018-12-21T16:35:34.497Z,83.09
2018-12-21T16:38:03.858Z,83.83
2018-12-21T16:40:33.365Z,83.25
2018-12-21T16:46:06.553Z,82.19
2018-12-21T16:48:35.836Z,83.66
2018-12-21T16:51:05.341Z,84.68
2018-12-21T16:53:34.731Z,84.31
2018-12-21T16:56:12.205Z,84.00
2018-12-21T16:58:35.450Z,84.35
2018-12-21T17:01:04.989Z,84.67
2018-12-21T17:03:34.344Z,84.29
2018-12-21T17:06:03.737Z,84.42
2018-12-21T17:08:32.997Z,84.29
2018-12-21T17:11:02.271Z,83.56
2018-12-21T17:13:31.621Z,83.61
2018-12-21T17:16:00.857Z,83.97
2018-12-21T17:18:30.448Z,84.51
2018-12-21T17:20:59.681Z,84.10
2018-12-21T17:23:28.930Z,83.55
2018-12-21T17:25:58.167Z,83.25
2018-12-21T17:28:27.505Z,83.00
2018-12-21T17:30:56.751Z,82.60
2018-12-21T17:33:25.988Z,82.12
2018-12-21T17:35:55.237Z,82.58
2018-12-21T17:38:24.504Z,81.92
2018-12-21T17:40:53.825Z,81.90
2018-12-21T17:43:23.148Z,81.48
2018-12-21T17:45:52.389Z,81.02
2018-12-21T17:48:21.676Z,81.23
2018-12-21T17:50:50.905Z,81.80
2018-12-21T17:53:20.231Z,80.45
2018-12-21T17:55:49.575Z,81.00
2018-12-21T17:58:18.853Z,80.91
2018-12-21T18:00:48.078Z,80.04
2018-12-21T18:03:34.773Z,80.10
2018-12-21T18:06:04.246Z,80.33
2018-12-21T18:08:33.578Z,79.86
2018-12-21T18:11:02.926Z,80.35
2018-12-21T18:13:32.259Z,80.33
2018-12-21T18:16:01.545Z,79.64
2018-12-21T18:18:31.091Z,78.82
2018-12-21T18:21:00.383Z,79.75
2018-12-21T18:23:29.606Z,79.33
2018-12-21T18:25:58.827Z,79.27
2018-12-21T18:28:29.467Z,79.64
2018-12-21T18:31:15.979Z,79.56
2018-12-21T18:33:45.556Z,79.39
2018-12-21T18:36:14.818Z,79.82
2018-12-21T18:38:44.043Z,79.86
2018-12-21T18:41:13.290Z,79.96
2018-12-21T18:43:42.640Z,79.88
2018-12-21T18:46:12.161Z,79.45
2018-12-21T18:48:41.458Z,79.91
2018-12-21T18:51:10.909Z,79.69
2018-12-21T18:53:40.186Z,79.22
2018-12-21T18:56:16.737Z,80.12
2018-12-21T18:58:45.992Z,80.40
2018-12-21T19:01:15.205Z,79.42
2018-12-21T19:03:44.578Z,79.60
2018-12-21T19:06:13.808Z,80.38
2018-12-21T19:08:43.115Z,79.67
2018-12-21T19:11:12.435Z,79.42
2018-12-21T19:13:41.754Z,79.45
2018-12-21T19:16:15.469Z,80.08
2018-12-21T19:18:44.873Z,79.89
2018-12-21T19:21:14.122Z,80.82
2018-12-21T19:26:18.881Z,80.78
2018-12-21T19:28:48.109Z,80.36
2018-12-21T19:31:17.407Z,80.18
2018-12-21T19:33:46.835Z,80.22
2018-12-21T19:36:16.377Z,80.19
2018-12-21T19:38:45.650Z,80.52
2018-12-21T19:41:14.923Z,80.12
2018-12-21T19:43:44.151Z,80.49
2018-12-21T19:46:13.614Z,80.93
2018-12-21T19:48:42.964Z,81.29
2018-12-21T19:51:12.348Z,80.86
2018-12-21T19:53:42.190Z,80.99
2018-12-21T19:56:26.033Z,79.96
2018-12-21T19:58:55.310Z,80.55
2018-12-21T20:01:24.643Z,81.07
2018-12-21T20:03:53.930Z,80.61
2018-12-21T20:06:23.186Z,80.92
2018-12-21T20:08:52.461Z,81.14
2018-12-21T20:11:21.732Z,80.72
2018-12-21T20:13:55.951Z,80.81
2018-12-21T20:16:25.166Z,80.22
2018-12-21T20:18:54.582Z,80.29
2018-12-21T20:21:23.826Z,80.93
2018-12-21T20:23:53.145Z,81.28
2018-12-21T20:26:22.406Z,81.47
2018-12-21T20:28:51.787Z,81.57
2018-12-21T20:31:21.106Z,81.25
2018-12-21T20:33:50.353Z,81.16
2018-12-21T20:36:19.782Z,81.26
2018-12-21T20:38:49.753Z,81.64
2018-12-21T20:41:19.062Z,81.77
2018-12-21T20:43:48.289Z,81.66
2018-12-21T20:46:17.603Z,82.15
2018-12-21T20:48:46.984Z,81.63
2018-12-21T20:51:16.258Z,82.19
2018-12-21T20:53:45.598Z,81.58
2018-12-21T20:56:14.822Z,81.57
2018-12-21T21:01:48.745Z,81.93
2018-12-21T21:04:18.015Z,82.64
2018-12-21T21:06:47.286Z,82.10
2018-12-21T21:09:16.790Z,82.20
2018-12-21T21:11:48.203Z,82.36
2018-12-21T21:14:19.645Z,82.56
2018-12-21T21:16:48.943Z,82.54
2018-12-21T21:19:18.177Z,82.65
2018-12-21T21:21:48.382Z,83.00
2018-12-21T21:24:17.615Z,82.64
2018-12-21T21:26:47.629Z,82.94
2018-12-21T21:29:16.944Z,83.21
2018-12-21T21:31:50.592Z,82.60
2018-12-21T21:34:19.826Z,82.97
2018-12-21T21:36:49.126Z,82.90
2018-12-21T21:39:18.366Z,82.88
2018-12-21T21:41:47.730Z,83.18
2018-12-21T21:44:18.794Z,82.64
2018-12-21T21:46:48.178Z,83.43
2018-12-21T21:49:19.372Z,83.11
2018-12-21T21:51:48.803Z,83.46
2018-12-21T21:54:18.214Z,83.45
2018-12-21T21:56:47.561Z,83.24
2018-12-21T21:59:16.758Z,83.03
2018-12-21T22:01:46.001Z,82.74
2018-12-21T22:04:15.775Z,82.87
2018-12-21T22:06:45.067Z,83.16
2018-12-21T22:09:14.252Z,82.71
2018-12-21T22:11:43.530Z,83.01
2018-12-21T22:14:12.842Z,83.25
2018-12-21T22:16:42.134Z,82.99
2018-12-21T22:19:12.301Z,82.19
2018-12-21T22:21:41.569Z,82.11
2018-12-21T22:24:10.834Z,82.59
2018-12-21T22:26:40.052Z,82.15
2018-12-21T22:29:09.282Z,82.77
2018-12-21T22:34:44.739Z,82.49
2018-12-21T22:37:14.878Z,82.26
2018-12-21T22:39:44.184Z,82.74
2018-12-21T22:42:13.418Z,82.47
2018-12-21T22:44:42.845Z,82.34
2018-12-21T22:47:12.141Z,82.85
2018-12-21T22:49:41.567Z,82.08
2018-12-21T22:52:10.842Z,82.20
2018-12-21T22:54:40.065Z,82.24
2018-12-21T22:57:09.366Z,82.66
2018-12-21T22:59:39.010Z,82.65
2018-12-21T23:02:08.331Z,82.20
2018-12-21T23:04:37.660Z,82.06
2018-12-21T23:07:29.969Z,82.96
2018-12-21T23:09:59.614Z,83.84
2018-12-21T23:12:29.054Z,84.35
2018-12-21T23:14:58.306Z,83.86
2018-12-21T23:17:27.578Z,83.86
2018-12-21T23:19:56.815Z,82.98
2018-12-21T23:22:26.147Z,83.35
2018-12-21T23:24:55.434Z,82.77
2018-12-21T23:27:24.656Z,83.40
2018-12-21T23:29:53.869Z,83.19
2018-12-21T23:32:23.121Z,82.78
2018-12-21T23:34:52.343Z,83.15
2018-12-21T23:37:21.653Z,83.27
2018-12-21T23:39:50.876Z,82.58
2018-12-21T23:42:20.121Z,82.71
2018-12-21T23:44:50.530Z,82.67
2018-12-21T23:47:19.818Z,84.96
2018-12-21T23:49:49.141Z,86.74
2018-12-21T23:52:18.717Z,87.65
2018-12-21T23:54:48.061Z,86.94
2018-12-21T23:57:17.312Z,86.95
2018-12-21T23:59:46.581Z,86.47
